Lane, Illinois
Current Conditions -  °F | °C
As of 1:54 AM on Saturday 20 Dec 2014 (Local Time) from KDEC Reporting Station
Overcast Overcast  
Wind Chill: 25°   Ceiling: 5000
Heat Index: 30°   Visibility: 8mi
Dew Point: 26°   Wind: 5mph
Humidity: 85%   Direction: 120°ESE
Pressure: 30.28"   Gusts: NA
Location:  40.12°N, 88.86°W
Report Text: KDEC 200754Z AUTO 12004KT 8SM OVC050 M01/M03 A3028 RMK AO2 SLP259 T10111033 TSNO
Loading
Personal Weather Stations






























Interactive Weather Map New forecast layout! Learn more

10-Day Weather Forecast

Advertisements
Track Severe Weather on mobile